sensor_id;sensor_type;location;lat;lon;timestamp;P1;durP1;ratioP1;P2;durP2;ratioP2
16113;SDS011;8161;-33.910;151.156;2023-03-23T00:00:26;9.73;;;4.93;;
16113;SDS011;8161;-33.910;151.156;2023-03-23T00:02:53;10.85;;;5.13;;
16113;SDS011;8161;-33.910;151.156;2023-03-23T00:05:20;12.40;;;5.47;;
16113;SDS011;8161;-33.910;151.156;2023-03-23T00:07:47;11.83;;;4.90;;
16113;SDS011;8161;-33.910;151.156;2023-03-23T00:10:17;4.70;;;2.38;;
16113;SDS011;8161;-33.910;151.156;2023-03-23T00:12:44;11.63;;;4.93;;
16113;SDS011;8161;-33.910;151.156;2023-03-23T00:15:15;557.95;;;92.88;;
16113;SDS011;8161;-33.910;151.156;2023-03-23T00:17:42;10.87;;;4.97;;
16113;SDS011;8161;-33.910;151.156;2023-03-23T00:20:09;18.45;;;4.80;;
16113;SDS011;8161;-33.910;151.156;2023-03-23T00:22:38;19.10;;;5.28;;
16113;SDS011;8161;-33.910;151.156;2023-03-23T00:25:06;8.27;;;4.05;;
16113;SDS011;8161;-33.910;151.156;2023-03-23T00:27:36;13.53;;;4.60;;
16113;SDS011;8161;-33.910;151.156;2023-03-23T00:30:04;18.83;;;5.20;;
16113;SDS011;8161;-33.910;151.156;2023-03-23T00:32:32;8.57;;;4.38;;
16113;SDS011;8161;-33.910;151.156;2023-03-23T00:35:00;9.93;;;4.60;;
16113;SDS011;8161;-33.910;151.156;2023-03-23T00:37:27;9.18;;;4.30;;
16113;SDS011;8161;-33.910;151.156;2023-03-23T00:39:54;9.98;;;4.78;;
16113;SDS011;8161;-33.910;151.156;2023-03-23T00:42:23;8.35;;;4.40;;
16113;SDS011;8161;-33.910;151.156;2023-03-23T00:44:50;12.82;;;4.40;;
16113;SDS011;8161;-33.910;151.156;2023-03-23T00:47:25;13.67;;;4.10;;
16113;SDS011;8161;-33.910;151.156;2023-03-23T00:49:54;9.02;;;3.83;;
16113;SDS011;8161;-33.910;151.156;2023-03-23T00:52:21;10.13;;;4.10;;
16113;SDS011;8161;-33.910;151.156;2023-03-23T00:54:49;10.00;;;3.77;;
16113;SDS011;8161;-33.910;151.156;2023-03-23T00:57:16;5.75;;;3.25;;
16113;SDS011;8161;-33.910;151.156;2023-03-23T00:59:43;12.55;;;3.90;;
16113;SDS011;8161;-33.910;151.156;2023-03-23T01:02:11;9.93;;;4.07;;
16113;SDS011;8161;-33.910;151.156;2023-03-23T01:04:38;12.82;;;3.83;;
16113;SDS011;8161;-33.910;151.156;2023-03-23T01:07:10;6.85;;;3.50;;
16113;SDS011;8161;-33.910;151.156;2023-03-23T01:09:43;5.75;;;3.30;;
16113;SDS011;8161;-33.910;151.156;2023-03-23T01:12:10;8.88;;;4.80;;
16113;SDS011;8161;-33.910;151.156;2023-03-23T01:14:38;6.95;;;3.53;;
16113;SDS011;8161;-33.910;151.156;2023-03-23T01:17:09;10.18;;;3.70;;
16113;SDS011;8161;-33.910;151.156;2023-03-23T01:19:36;9.98;;;3.90;;
16113;SDS011;8161;-33.910;151.156;2023-03-23T01:22:03;9.10;;;3.87;;
16113;SDS011;8161;-33.910;151.156;2023-03-23T01:24:30;8.57;;;3.65;;
16113;SDS011;8161;-33.910;151.156;2023-03-23T01:26:58;6.38;;;3.65;;
16113;SDS011;8161;-33.910;151.156;2023-03-23T01:29:32;7.88;;;3.90;;
16113;SDS011;8161;-33.910;151.156;2023-03-23T01:32:00;6.82;;;3.40;;
16113;SDS011;8161;-33.910;151.156;2023-03-23T01:34:28;9.80;;;3.67;;
16113;SDS011;8161;-33.910;151.156;2023-03-23T01:36:55;10.40;;;4.03;;
16113;SDS011;8161;-33.910;151.156;2023-03-23T01:39:22;8.30;;;3.80;;
16113;SDS011;8161;-33.910;151.156;2023-03-23T01:41:50;7.80;;;3.70;;
16113;SDS011;8161;-33.910;151.156;2023-03-23T01:46:44;7.78;;;3.80;;
16113;SDS011;8161;-33.910;151.156;2023-03-23T01:49:19;8.07;;;3.78;;
16113;SDS011;8161;-33.910;151.156;2023-03-23T01:51:53;6.32;;;3.40;;
16113;SDS011;8161;-33.910;151.156;2023-03-23T01:54:23;7.25;;;4.00;;
16113;SDS011;8161;-33.910;151.156;2023-03-23T01:56:54;6.73;;;3.90;;
16113;SDS011;8161;-33.910;151.156;2023-03-23T01:59:27;7.77;;;3.40;;
16113;SDS011;8161;-33.910;151.156;2023-03-23T02:01:56;9.38;;;4.20;;
16113;SDS011;8161;-33.910;151.156;2023-03-23T02:04:26;7.68;;;3.42;;
16113;SDS011;8161;-33.910;151.156;2023-03-23T02:06:54;7.90;;;4.00;;
16113;SDS011;8161;-33.910;151.156;2023-03-23T02:09:26;11.73;;;4.43;;
16113;SDS011;8161;-33.910;151.156;2023-03-23T02:11:54;9.90;;;3.97;;
16113;SDS011;8161;-33.910;151.156;2023-03-23T02:14:22;7.10;;;4.13;;
16113;SDS011;8161;-33.910;151.156;2023-03-23T02:21:57;9.05;;;3.95;;
16113;SDS011;8161;-33.910;151.156;2023-03-23T02:24:39;10.90;;;4.53;;
16113;SDS011;8161;-33.910;151.156;2023-03-23T02:30:31;6.57;;;4.20;;
16113;SDS011;8161;-33.910;151.156;2023-03-23T02:41:19;8.20;;;4.10;;
16113;SDS011;8161;-33.910;151.156;2023-03-23T02:43:50;8.32;;;4.20;;
16113;SDS011;8161;-33.910;151.156;2023-03-23T02:46:18;6.90;;;3.80;;
16113;SDS011;8161;-33.910;151.156;2023-03-23T02:48:48;8.73;;;4.10;;
16113;SDS011;8161;-33.910;151.156;2023-03-23T02:51:19;6.40;;;3.83;;
16113;SDS011;8161;-33.910;151.156;2023-03-23T02:53:49;10.02;;;4.53;;
16113;SDS011;8161;-33.910;151.156;2023-03-23T02:56:18;8.30;;;3.92;;
16113;SDS011;8161;-33.910;151.156;2023-03-23T02:58:47;7.43;;;4.20;;
16113;SDS011;8161;-33.910;151.156;2023-03-23T03:03:54;10.43;;;4.90;;
16113;SDS011;8161;-33.910;151.156;2023-03-23T03:09:02;8.65;;;4.88;;
16113;SDS011;8161;-33.910;151.156;2023-03-23T03:12:44;6.63;;;4.07;;
16113;SDS011;8161;-33.910;151.156;2023-03-23T03:17:55;15.20;;;4.50;;
16113;SDS011;8161;-33.910;151.156;2023-03-23T03:20:34;14.05;;;3.95;;
16113;SDS011;8161;-33.910;151.156;2023-03-23T03:23:06;6.20;;;3.30;;
16113;SDS011;8161;-33.910;151.156;2023-03-23T03:25:38;8.23;;;3.35;;
16113;SDS011;8161;-33.910;151.156;2023-03-23T03:28:08;6.07;;;3.55;;
16113;SDS011;8161;-33.910;151.156;2023-03-23T03:30:35;8.25;;;3.63;;
16113;SDS011;8161;-33.910;151.156;2023-03-23T03:33:05;14.50;;;4.43;;
16113;SDS011;8161;-33.910;151.156;2023-03-23T03:35:35;4.43;;;2.23;;
16113;SDS011;8161;-33.910;151.156;2023-03-23T03:38:08;116.88;;;59.85;;
16113;SDS011;8161;-33.910;151.156;2023-03-23T03:40:37;45.25;;;22.50;;
16113;SDS011;8161;-33.910;151.156;2023-03-23T03:43:05;18.85;;;6.13;;
16113;SDS011;8161;-33.910;151.156;2023-03-23T03:45:32;15.93;;;4.85;;
16113;SDS011;8161;-33.910;151.156;2023-03-23T03:48:00;14.50;;;7.32;;
16113;SDS011;8161;-33.910;151.156;2023-03-23T03:50:27;11.45;;;5.18;;
16113;SDS011;8161;-33.910;151.156;2023-03-23T03:52:55;12.30;;;5.10;;
16113;SDS011;8161;-33.910;151.156;2023-03-23T03:55:23;14.07;;;4.53;;
16113;SDS011;8161;-33.910;151.156;2023-03-23T03:57:54;10.07;;;4.15;;
16113;SDS011;8161;-33.910;151.156;2023-03-23T04:00:22;11.85;;;4.75;;
16113;SDS011;8161;-33.910;151.156;2023-03-23T04:02:50;11.88;;;5.32;;
16113;SDS011;8161;-33.910;151.156;2023-03-23T04:05:19;12.70;;;9.10;;
16113;SDS011;8161;-33.910;151.156;2023-03-23T04:07:48;10.18;;;6.13;;
16113;SDS011;8161;-33.910;151.156;2023-03-23T04:10:17;14.47;;;9.13;;
16113;SDS011;8161;-33.910;151.156;2023-03-23T04:12:47;21.63;;;19.63;;
16113;SDS011;8161;-33.910;151.156;2023-03-23T04:15:15;63.15;;;59.05;;
16113;SDS011;8161;-33.910;151.156;2023-03-23T04:17:42;62.37;;;58.00;;
16113;SDS011;8161;-33.910;151.156;2023-03-23T04:20:10;68.72;;;64.25;;
16113;SDS011;8161;-33.910;151.156;2023-03-23T04:22:43;46.05;;;42.35;;
16113;SDS011;8161;-33.910;151.156;2023-03-23T04:25:15;26.48;;;24.50;;
16113;SDS011;8161;-33.910;151.156;2023-03-23T04:27:46;23.80;;;21.80;;
16113;SDS011;8161;-33.910;151.156;2023-03-23T04:30:19;19.75;;;18.02;;
16113;SDS011;8161;-33.910;151.156;2023-03-23T04:32:48;19.08;;;17.33;;
16113;SDS011;8161;-33.910;151.156;2023-03-23T04:35:18;19.17;;;15.73;;
16113;SDS011;8161;-33.910;151.156;2023-03-23T04:37:46;17.27;;;15.57;;
16113;SDS011;8161;-33.910;151.156;2023-03-23T04:40:14;17.08;;;13.82;;
16113;SDS011;8161;-33.910;151.156;2023-03-23T04:42:43;14.43;;;11.27;;
16113;SDS011;8161;-33.910;151.156;2023-03-23T04:45:19;12.93;;;9.80;;
16113;SDS011;8161;-33.910;151.156;2023-03-23T04:47:50;13.00;;;8.57;;
16113;SDS011;8161;-33.910;151.156;2023-03-23T04:50:23;10.13;;;7.43;;
16113;SDS011;8161;-33.910;151.156;2023-03-23T04:52:53;11.53;;;7.77;;
16113;SDS011;8161;-33.910;151.156;2023-03-23T04:55:22;11.13;;;8.07;;
16113;SDS011;8161;-33.910;151.156;2023-03-23T04:57:52;10.25;;;7.53;;
16113;SDS011;8161;-33.910;151.156;2023-03-23T05:00:19;11.15;;;8.35;;
16113;SDS011;8161;-33.910;151.156;2023-03-23T05:02:47;12.80;;;8.30;;
16113;SDS011;8161;-33.910;151.156;2023-03-23T05:05:18;11.73;;;7.80;;
16113;SDS011;8161;-33.910;151.156;2023-03-23T05:07:46;10.33;;;8.30;;
16113;SDS011;8161;-33.910;151.156;2023-03-23T05:10:14;10.98;;;7.75;;
16113;SDS011;8161;-33.910;151.156;2023-03-23T05:12:42;8.75;;;7.57;;
16113;SDS011;8161;-33.910;151.156;2023-03-23T05:15:11;8.77;;;7.88;;
16113;SDS011;8161;-33.910;151.156;2023-03-23T05:17:40;10.93;;;8.27;;
16113;SDS011;8161;-33.910;151.156;2023-03-23T05:20:09;9.40;;;8.45;;
16113;SDS011;8161;-33.910;151.156;2023-03-23T05:22:38;17.25;;;8.80;;
16113;SDS011;8161;-33.910;151.156;2023-03-23T05:25:07;10.98;;;8.10;;
16113;SDS011;8161;-33.910;151.156;2023-03-23T05:27:38;11.68;;;8.60;;
16113;SDS011;8161;-33.910;151.156;2023-03-23T05:30:09;9.68;;;8.40;;
16113;SDS011;8161;-33.910;151.156;2023-03-23T05:32:37;10.23;;;8.32;;
16113;SDS011;8161;-33.910;151.156;2023-03-23T05:35:05;10.07;;;8.70;;
16113;SDS011;8161;-33.910;151.156;2023-03-23T05:37:32;11.23;;;7.47;;
16113;SDS011;8161;-33.910;151.156;2023-03-23T05:40:00;10.40;;;7.93;;
16113;SDS011;8161;-33.910;151.156;2023-03-23T05:42:35;12.00;;;8.30;;
16113;SDS011;8161;-33.910;151.156;2023-03-23T05:45:03;12.98;;;7.80;;
16113;SDS011;8161;-33.910;151.156;2023-03-23T05:47:31;11.77;;;7.33;;
16113;SDS011;8161;-33.910;151.156;2023-03-23T05:49:58;9.65;;;8.00;;
16113;SDS011;8161;-33.910;151.156;2023-03-23T05:52:26;7.55;;;6.75;;
16113;SDS011;8161;-33.910;151.156;2023-03-23T05:54:54;8.10;;;7.30;;
16113;SDS011;8161;-33.910;151.156;2023-03-23T05:57:21;9.52;;;8.55;;
16113;SDS011;8161;-33.910;151.156;2023-03-23T05:59:48;7.13;;;6.43;;
16113;SDS011;8161;-33.910;151.156;2023-03-23T06:02:15;7.33;;;6.73;;
16113;SDS011;8161;-33.910;151.156;2023-03-23T06:04:43;7.18;;;6.68;;
16113;SDS011;8161;-33.910;151.156;2023-03-23T06:07:10;8.88;;;8.18;;
16113;SDS011;8161;-33.910;151.156;2023-03-23T06:09:40;8.43;;;7.65;;
16113;SDS011;8161;-33.910;151.156;2023-03-23T06:12:08;7.30;;;6.60;;
16113;SDS011;8161;-33.910;151.156;2023-03-23T06:14:36;6.93;;;6.23;;
16113;SDS011;8161;-33.910;151.156;2023-03-23T06:17:04;5.87;;;5.47;;
16113;SDS011;8161;-33.910;151.156;2023-03-23T06:19:31;8.32;;;5.90;;
16113;SDS011;8161;-33.910;151.156;2023-03-23T06:21:59;8.55;;;6.38;;
16113;SDS011;8161;-33.910;151.156;2023-03-23T06:24:27;7.65;;;5.80;;
16113;SDS011;8161;-33.910;151.156;2023-03-23T06:26:54;10.20;;;5.22;;
16113;SDS011;8161;-33.910;151.156;2023-03-23T06:29:22;7.90;;;4.50;;
16113;SDS011;8161;-33.910;151.156;2023-03-23T06:31:51;9.73;;;7.07;;
16113;SDS011;8161;-33.910;151.156;2023-03-23T06:34:22;8.80;;;7.50;;
16113;SDS011;8161;-33.910;151.156;2023-03-23T06:36:50;9.73;;;8.50;;
16113;SDS011;8161;-33.910;151.156;2023-03-23T06:39:17;12.65;;;11.38;;
16113;SDS011;8161;-33.910;151.156;2023-03-23T06:41:45;19.58;;;17.77;;
16113;SDS011;8161;-33.910;151.156;2023-03-23T06:44:12;23.95;;;22.17;;
16113;SDS011;8161;-33.910;151.156;2023-03-23T06:46:40;28.63;;;26.65;;
16113;SDS011;8161;-33.910;151.156;2023-03-23T06:49:08;26.65;;;24.90;;
16113;SDS011;8161;-33.910;151.156;2023-03-23T06:51:35;24.70;;;23.10;;
16113;SDS011;8161;-33.910;151.156;2023-03-23T06:54:03;21.23;;;19.73;;
16113;SDS011;8161;-33.910;151.156;2023-03-23T06:56:31;19.55;;;18.25;;
16113;SDS011;8161;-33.910;151.156;2023-03-23T06:58:58;18.70;;;17.30;;
16113;SDS011;8161;-33.910;151.156;2023-03-23T07:01:26;19.15;;;17.75;;
16113;SDS011;8161;-33.910;151.156;2023-03-23T07:03:54;19.95;;;18.48;;
16113;SDS011;8161;-33.910;151.156;2023-03-23T07:06:24;24.65;;;23.00;;
16113;SDS011;8161;-33.910;151.156;2023-03-23T07:08:51;25.90;;;24.08;;
16113;SDS011;8161;-33.910;151.156;2023-03-23T07:11:22;48.28;;;45.28;;
16113;SDS011;8161;-33.910;151.156;2023-03-23T07:13:49;101.68;;;96.18;;
16113;SDS011;8161;-33.910;151.156;2023-03-23T07:16:16;138.35;;;130.95;;
16113;SDS011;8161;-33.910;151.156;2023-03-23T07:18:44;252.30;;;239.30;;
16113;SDS011;8161;-33.910;151.156;2023-03-23T07:21:11;369.98;;;350.63;;
16113;SDS011;8161;-33.910;151.156;2023-03-23T07:23:38;449.88;;;425.10;;
16113;SDS011;8161;-33.910;151.156;2023-03-23T07:26:06;497.42;;;469.33;;
16113;SDS011;8161;-33.910;151.156;2023-03-23T07:28:33;464.20;;;438.48;;
16113;SDS011;8161;-33.910;151.156;2023-03-23T07:31:01;360.92;;;342.10;;
16113;SDS011;8161;-33.910;151.156;2023-03-23T07:33:29;190.05;;;179.80;;
16113;SDS011;8161;-33.910;151.156;2023-03-23T07:36:02;119.15;;;112.93;;
16113;SDS011;8161;-33.910;151.156;2023-03-23T07:38:29;227.38;;;215.60;;
16113;SDS011;8161;-33.910;151.156;2023-03-23T07:40:57;418.23;;;395.65;;
16113;SDS011;8161;-33.910;151.156;2023-03-23T07:43:24;507.55;;;478.70;;
16113;SDS011;8161;-33.910;151.156;2023-03-23T07:45:54;561.83;;;528.67;;
16113;SDS011;8161;-33.910;151.156;2023-03-23T07:48:22;573.22;;;539.25;;
16113;SDS011;8161;-33.910;151.156;2023-03-23T07:50:49;643.75;;;603.53;;
16113;SDS011;8161;-33.910;151.156;2023-03-23T07:53:16;670.20;;;627.40;;
16113;SDS011;8161;-33.910;151.156;2023-03-23T07:55:43;676.92;;;633.40;;
16113;SDS011;8161;-33.910;151.156;2023-03-23T07:58:10;679.05;;;635.25;;
16113;SDS011;8161;-33.910;151.156;2023-03-23T08:00:43;687.03;;;642.40;;
16113;SDS011;8161;-33.910;151.156;2023-03-23T08:03:14;693.67;;;648.63;;
16113;SDS011;8161;-33.910;151.156;2023-03-23T08:05:42;686.87;;;642.37;;
16113;SDS011;8161;-33.910;151.156;2023-03-23T08:08:09;695.20;;;650.10;;
16113;SDS011;8161;-33.910;151.156;2023-03-23T08:10:37;735.15;;;687.33;;
16113;SDS011;8161;-33.910;151.156;2023-03-23T08:13:05;675.25;;;631.85;;
16113;SDS011;8161;-33.910;151.156;2023-03-23T08:15:33;666.60;;;624.00;;
16113;SDS011;8161;-33.910;151.156;2023-03-23T08:18:03;661.70;;;619.57;;
16113;SDS011;8161;-33.910;151.156;2023-03-23T08:20:30;650.88;;;610.03;;
16113;SDS011;8161;-33.910;151.156;2023-03-23T08:22:58;640.63;;;600.65;;
16113;SDS011;8161;-33.910;151.156;2023-03-23T08:25:27;635.85;;;596.08;;
16113;SDS011;8161;-33.910;151.156;2023-03-23T08:27:59;645.88;;;605.45;;
16113;SDS011;8161;-33.910;151.156;2023-03-23T08:30:30;640.97;;;601.05;;
16113;SDS011;8161;-33.910;151.156;2023-03-23T08:32:59;622.38;;;584.22;;
16113;SDS011;8161;-33.910;151.156;2023-03-23T08:35:27;597.20;;;560.90;;
16113;SDS011;8161;-33.910;151.156;2023-03-23T08:37:54;603.83;;;566.63;;
16113;SDS011;8161;-33.910;151.156;2023-03-23T08:40:23;587.88;;;552.63;;
16113;SDS011;8161;-33.910;151.156;2023-03-23T08:42:54;559.78;;;526.80;;
16113;SDS011;8161;-33.910;151.156;2023-03-23T08:45:23;555.13;;;522.75;;
16113;SDS011;8161;-33.910;151.156;2023-03-23T08:47:52;532.80;;;502.20;;
16113;SDS011;8161;-33.910;151.156;2023-03-23T08:50:21;543.15;;;511.77;;
16113;SDS011;8161;-33.910;151.156;2023-03-23T08:52:52;488.90;;;461.40;;
16113;SDS011;8161;-33.910;151.156;2023-03-23T08:55:23;467.92;;;442.13;;
16113;SDS011;8161;-33.910;151.156;2023-03-23T08:57:51;459.83;;;434.63;;
16113;SDS011;8161;-33.910;151.156;2023-03-23T09:00:19;440.55;;;416.55;;
16113;SDS011;8161;-33.910;151.156;2023-03-23T09:02:51;433.27;;;409.55;;
16113;SDS011;8161;-33.910;151.156;2023-03-23T09:05:21;414.80;;;392.50;;
16113;SDS011;8161;-33.910;151.156;2023-03-23T09:07:54;410.73;;;388.95;;
16113;SDS011;8161;-33.910;151.156;2023-03-23T09:10:25;400.03;;;378.57;;
16113;SDS011;8161;-33.910;151.156;2023-03-23T09:12:56;388.88;;;368.10;;
16113;SDS011;8161;-33.910;151.156;2023-03-23T09:15:24;377.55;;;357.73;;
16113;SDS011;8161;-33.910;151.156;2023-03-23T09:17:52;350.65;;;332.52;;
16113;SDS011;8161;-33.910;151.156;2023-03-23T09:20:21;327.48;;;310.83;;
16113;SDS011;8161;-33.910;151.156;2023-03-23T09:22:51;321.50;;;305.00;;
16113;SDS011;8161;-33.910;151.156;2023-03-23T09:25:21;302.35;;;286.50;;
16113;SDS011;8161;-33.910;151.156;2023-03-23T09:27:52;292.23;;;277.23;;
16113;SDS011;8161;-33.910;151.156;2023-03-23T09:30:26;292.55;;;277.63;;
16113;SDS011;8161;-33.910;151.156;2023-03-23T09:32:56;289.45;;;274.60;;
16113;SDS011;8161;-33.910;151.156;2023-03-23T09:35:27;326.80;;;310.00;;
16113;SDS011;8161;-33.910;151.156;2023-03-23T09:37:55;328.92;;;311.63;;
16113;SDS011;8161;-33.910;151.156;2023-03-23T09:40:28;330.38;;;313.45;;
16113;SDS011;8161;-33.910;151.156;2023-03-23T09:48:33;310.63;;;294.77;;
16113;SDS011;8161;-33.910;151.156;2023-03-23T09:57:00;310.88;;;295.02;;
16113;SDS011;8161;-33.910;151.156;2023-03-23T09:59:37;303.48;;;288.08;;
16113;SDS011;8161;-33.910;151.156;2023-03-23T10:03:05;307.70;;;292.17;;
16113;SDS011;8161;-33.910;151.156;2023-03-23T10:07:58;302.15;;;286.83;;
16113;SDS011;8161;-33.910;151.156;2023-03-23T10:10:31;276.23;;;262.33;;
16113;SDS011;8161;-33.910;151.156;2023-03-23T10:13:30;257.87;;;244.93;;
16113;SDS011;8161;-33.910;151.156;2023-03-23T10:16:07;266.55;;;253.20;;
16113;SDS011;8161;-33.910;151.156;2023-03-23T10:18:58;267.10;;;253.40;;
16113;SDS011;8161;-33.910;151.156;2023-03-23T10:21:31;265.48;;;252.10;;
16113;SDS011;8161;-33.910;151.156;2023-03-23T10:24:04;238.70;;;226.63;;
16113;SDS011;8161;-33.910;151.156;2023-03-23T10:29:57;197.88;;;187.80;;
16113;SDS011;8161;-33.910;151.156;2023-03-23T10:32:19;200.48;;;190.27;;
16113;SDS011;8161;-33.910;151.156;2023-03-23T10:35:10;209.30;;;198.70;;
16113;SDS011;8161;-33.910;151.156;2023-03-23T10:37:42;205.38;;;194.98;;
16113;SDS011;8161;-33.910;151.156;2023-03-23T10:40:23;209.80;;;199.20;;
16113;SDS011;8161;-33.910;151.156;2023-03-23T10:42:54;206.50;;;195.98;;
16113;SDS011;8161;-33.910;151.156;2023-03-23T10:45:27;202.88;;;192.48;;
16113;SDS011;8161;-33.910;151.156;2023-03-23T10:48:01;199.85;;;189.85;;
16113;SDS011;8161;-33.910;151.156;2023-03-23T10:50:36;207.43;;;196.95;;
16113;SDS011;8161;-33.910;151.156;2023-03-23T10:53:49;221.73;;;210.52;;
16113;SDS011;8161;-33.910;151.156;2023-03-23T10:58:54;200.20;;;190.05;;
16113;SDS011;8161;-33.910;151.156;2023-03-23T11:01:31;209.55;;;198.95;;
16113;SDS011;8161;-33.910;151.156;2023-03-23T11:04:02;226.85;;;215.35;;
16113;SDS011;8161;-33.910;151.156;2023-03-23T11:06:36;173.77;;;164.88;;
16113;SDS011;8161;-33.910;151.156;2023-03-23T11:09:15;167.10;;;158.50;;
16113;SDS011;8161;-33.910;151.156;2023-03-23T11:11:54;156.73;;;148.70;;
16113;SDS011;8161;-33.910;151.156;2023-03-23T11:14:32;143.65;;;136.15;;
16113;SDS011;8161;-33.910;151.156;2023-03-23T11:17:05;133.80;;;126.95;;
16113;SDS011;8161;-33.910;151.156;2023-03-23T11:19:50;132.38;;;125.57;;
16113;SDS011;8161;-33.910;151.156;2023-03-23T11:22:25;133.57;;;126.47;;
16113;SDS011;8161;-33.910;151.156;2023-03-23T11:24:54;132.10;;;125.28;;
16113;SDS011;8161;-33.910;151.156;2023-03-23T11:27:26;138.23;;;130.80;;
16113;SDS011;8161;-33.910;151.156;2023-03-23T11:29:56;144.20;;;136.70;;
16113;SDS011;8161;-33.910;151.156;2023-03-23T11:32:35;147.30;;;139.63;;
16113;SDS011;8161;-33.910;151.156;2023-03-23T11:35:04;141.02;;;133.57;;
16113;SDS011;8161;-33.910;151.156;2023-03-23T11:37:42;155.70;;;147.65;;
16113;SDS011;8161;-33.910;151.156;2023-03-23T11:40:15;124.97;;;118.38;;
16113;SDS011;8161;-33.910;151.156;2023-03-23T11:42:46;121.15;;;114.82;;
16113;SDS011;8161;-33.910;151.156;2023-03-23T11:45:25;114.85;;;108.85;;
16113;SDS011;8161;-33.910;151.156;2023-03-23T11:50:51;114.18;;;108.22;;
16113;SDS011;8161;-33.910;151.156;2023-03-23T11:53:37;108.57;;;102.93;;
16113;SDS011;8161;-33.910;151.156;2023-03-23T11:59:00;100.97;;;95.65;;
16113;SDS011;8161;-33.910;151.156;2023-03-23T12:04:25;96.33;;;91.23;;
16113;SDS011;8161;-33.910;151.156;2023-03-23T12:07:14;98.30;;;93.07;;
16113;SDS011;8161;-33.910;151.156;2023-03-23T12:20:39;85.82;;;81.25;;
16113;SDS011;8161;-33.910;151.156;2023-03-23T12:25:51;93.53;;;88.50;;
16113;SDS011;8161;-33.910;151.156;2023-03-23T12:33:59;89.20;;;84.22;;
16113;SDS011;8161;-33.910;151.156;2023-03-23T12:52:51;63.67;;;59.88;;
16113;SDS011;8161;-33.910;151.156;2023-03-23T12:58:09;64.60;;;60.80;;
16113;SDS011;8161;-33.910;151.156;2023-03-23T13:03:31;61.37;;;57.77;;
16113;SDS011;8161;-33.910;151.156;2023-03-23T13:06:31;65.03;;;61.22;;
16113;SDS011;8161;-33.910;151.156;2023-03-23T13:09:07;62.55;;;58.63;;
16113;SDS011;8161;-33.910;151.156;2023-03-23T13:11:40;64.05;;;60.35;;
16113;SDS011;8161;-33.910;151.156;2023-03-23T13:22:29;60.88;;;57.25;;
16113;SDS011;8161;-33.910;151.156;2023-03-23T13:25:13;59.33;;;55.87;;
16113;SDS011;8161;-33.910;151.156;2023-03-23T13:27:55;62.45;;;58.88;;
16113;SDS011;8161;-33.910;151.156;2023-03-23T13:30:29;56.53;;;53.22;;
16113;SDS011;8161;-33.910;151.156;2023-03-23T13:33:03;55.90;;;52.67;;
16113;SDS011;8161;-33.910;151.156;2023-03-23T13:35:36;50.45;;;47.47;;
16113;SDS011;8161;-33.910;151.156;2023-03-23T13:38:18;51.25;;;48.28;;
16113;SDS011;8161;-33.910;151.156;2023-03-23T13:40:54;51.47;;;48.35;;
16113;SDS011;8161;-33.910;151.156;2023-03-23T13:46:11;50.80;;;47.78;;
16113;SDS011;8161;-33.910;151.156;2023-03-23T13:48:48;51.70;;;48.55;;
16113;SDS011;8161;-33.910;151.156;2023-03-23T13:53:50;51.13;;;48.07;;
16113;SDS011;8161;-33.910;151.156;2023-03-23T13:59:13;50.10;;;46.97;;
16113;SDS011;8161;-33.910;151.156;2023-03-23T14:01:42;52.80;;;49.67;;
16113;SDS011;8161;-33.910;151.156;2023-03-23T14:04:13;46.00;;;43.30;;
16113;SDS011;8161;-33.910;151.156;2023-03-23T14:06:44;39.70;;;37.10;;
16113;SDS011;8161;-33.910;151.156;2023-03-23T14:09:18;36.27;;;33.67;;
16113;SDS011;8161;-33.910;151.156;2023-03-23T14:11:58;38.95;;;36.35;;
16113;SDS011;8161;-33.910;151.156;2023-03-23T14:17:37;31.73;;;29.63;;
16113;SDS011;8161;-33.910;151.156;2023-03-23T14:23:05;31.67;;;29.55;;
16113;SDS011;8161;-33.910;151.156;2023-03-23T14:25:40;32.53;;;30.40;;
16113;SDS011;8161;-33.910;151.156;2023-03-23T14:28:18;31.15;;;29.17;;
16113;SDS011;8161;-33.910;151.156;2023-03-23T14:30:48;32.90;;;30.73;;
16113;SDS011;8161;-33.910;151.156;2023-03-23T14:33:19;33.17;;;30.77;;
16113;SDS011;8161;-33.910;151.156;2023-03-23T14:35:47;31.50;;;29.42;;
16113;SDS011;8161;-33.910;151.156;2023-03-23T14:38:21;31.10;;;29.17;;
16113;SDS011;8161;-33.910;151.156;2023-03-23T14:40:52;27.98;;;26.30;;
16113;SDS011;8161;-33.910;151.156;2023-03-23T14:43:25;27.27;;;25.55;;
16113;SDS011;8161;-33.910;151.156;2023-03-23T14:45:54;27.85;;;26.17;;
16113;SDS011;8161;-33.910;151.156;2023-03-23T14:48:24;25.27;;;23.58;;
16113;SDS011;8161;-33.910;151.156;2023-03-23T14:50:56;26.02;;;24.42;;
16113;SDS011;8161;-33.910;151.156;2023-03-23T14:53:32;27.45;;;25.65;;
16113;SDS011;8161;-33.910;151.156;2023-03-23T14:56:08;27.10;;;25.33;;
16113;SDS011;8161;-33.910;151.156;2023-03-23T14:58:45;28.00;;;26.30;;
16113;SDS011;8161;-33.910;151.156;2023-03-23T15:01:15;28.92;;;27.13;;
16113;SDS011;8161;-33.910;151.156;2023-03-23T15:03:53;26.70;;;24.90;;
16113;SDS011;8161;-33.910;151.156;2023-03-23T15:06:30;27.10;;;25.33;;
16113;SDS011;8161;-33.910;151.156;2023-03-23T15:09:02;27.20;;;25.50;;
16113;SDS011;8161;-33.910;151.156;2023-03-23T15:11:33;24.52;;;23.08;;
16113;SDS011;8161;-33.910;151.156;2023-03-23T15:14:07;25.40;;;23.60;;
16113;SDS011;8161;-33.910;151.156;2023-03-23T15:16:47;23.90;;;22.30;;
16113;SDS011;8161;-33.910;151.156;2023-03-23T15:19:20;23.80;;;22.23;;
16113;SDS011;8161;-33.910;151.156;2023-03-23T15:21:55;24.35;;;22.85;;
16113;SDS011;8161;-33.910;151.156;2023-03-23T15:24:38;24.15;;;22.73;;
16113;SDS011;8161;-33.910;151.156;2023-03-23T15:29:46;22.88;;;21.38;;
16113;SDS011;8161;-33.910;151.156;2023-03-23T15:32:20;22.92;;;21.50;;
16113;SDS011;8161;-33.910;151.156;2023-03-23T15:34:48;21.48;;;20.15;;
16113;SDS011;8161;-33.910;151.156;2023-03-23T15:37:27;21.52;;;20.13;;
16113;SDS011;8161;-33.910;151.156;2023-03-23T15:39:59;20.17;;;18.77;;
16113;SDS011;8161;-33.910;151.156;2023-03-23T15:42:32;19.73;;;18.52;;
16113;SDS011;8161;-33.910;151.156;2023-03-23T15:47:38;18.15;;;16.90;;
16113;SDS011;8161;-33.910;151.156;2023-03-23T15:50:14;18.52;;;17.33;;
16113;SDS011;8161;-33.910;151.156;2023-03-23T15:52:43;19.38;;;18.08;;
16113;SDS011;8161;-33.910;151.156;2023-03-23T15:55:22;21.45;;;20.05;;
16113;SDS011;8161;-33.910;151.156;2023-03-23T15:58:07;20.10;;;18.70;;
16113;SDS011;8161;-33.910;151.156;2023-03-23T16:00:35;18.92;;;17.75;;
16113;SDS011;8161;-33.910;151.156;2023-03-23T16:03:05;17.58;;;16.38;;
16113;SDS011;8161;-33.910;151.156;2023-03-23T16:05:34;18.83;;;17.63;;
16113;SDS011;8161;-33.910;151.156;2023-03-23T16:08:01;17.85;;;16.63;;
16113;SDS011;8161;-33.910;151.156;2023-03-23T16:10:29;18.38;;;17.08;;
16113;SDS011;8161;-33.910;151.156;2023-03-23T16:12:58;17.98;;;16.77;;
16113;SDS011;8161;-33.910;151.156;2023-03-23T16:15:31;18.90;;;17.30;;
16113;SDS011;8161;-33.910;151.156;2023-03-23T16:18:01;16.60;;;15.30;;
16113;SDS011;8161;-33.910;151.156;2023-03-23T16:20:29;15.13;;;14.13;;
16113;SDS011;8161;-33.910;151.156;2023-03-23T16:22:57;14.05;;;12.98;;